createdAt,value
2022-08-26T00:00:00.459Z,25.42
2022-08-26T00:05:05.258Z,25.46
2022-08-26T00:10:11.751Z,25.46
2022-08-26T00:15:18.020Z,25.44
2022-08-26T00:20:24.992Z,25.40
2022-08-26T00:25:42.507Z,25.40
2022-08-26T00:30:49.255Z,25.45
2022-08-26T00:35:54.020Z,25.47
2022-08-26T00:41:22.475Z,25.51
2022-08-26T00:46:34.074Z,25.58
2022-08-26T00:51:47.795Z,25.63
2022-08-26T00:57:05.021Z,25.62
2022-08-26T01:02:20.035Z,25.63
2022-08-26T01:07:26.326Z,25.56
2022-08-26T01:12:58.648Z,25.43
2022-08-26T01:21:23.379Z,25.34
2022-08-26T01:26:32.423Z,25.32
2022-08-26T01:31:42.743Z,25.29
2022-08-26T01:36:49.284Z,25.28
2022-08-26T01:42:02.925Z,25.25
2022-08-26T01:47:06.711Z,25.22
2022-08-26T01:52:10.794Z,25.20
2022-08-26T01:57:16.899Z,25.17
2022-08-26T02:02:19.237Z,25.17
2022-08-26T02:07:26.677Z,25.15
2022-08-26T02:12:31.908Z,25.14
2022-08-26T02:17:41.618Z,25.13
2022-08-26T02:22:47.112Z,25.12
2022-08-26T02:27:49.570Z,25.14
2022-08-26T02:33:04.205Z,25.15
2022-08-26T02:38:11.222Z,25.13
2022-08-26T02:43:39.023Z,25.12
2022-08-26T02:48:41.175Z,25.09
2022-08-26T02:53:46.374Z,25.06
2022-08-26T02:58:59.202Z,25.02
2022-08-26T03:04:03.807Z,24.94
2022-08-26T03:09:18.476Z,24.86
2022-08-26T03:14:29.138Z,24.76
2022-08-26T03:19:40.995Z,24.68
2022-08-26T03:24:46.601Z,24.57
2022-08-26T03:30:11.823Z,24.48
2022-08-26T03:35:16.262Z,24.39
2022-08-26T03:40:20.348Z,24.31
2022-08-26T03:45:22.720Z,24.28
2022-08-26T03:50:26.546Z,24.28
2022-08-26T03:55:33.235Z,24.28
2022-08-26T04:00:35.416Z,24.30
2022-08-26T04:05:44.743Z,24.33
2022-08-26T04:10:54.356Z,24.35
2022-08-26T04:16:07.952Z,24.35
2022-08-26T04:21:16.546Z,24.37
2022-08-26T04:26:22.606Z,24.37
2022-08-26T04:31:36.128Z,24.40
2022-08-26T04:36:43.405Z,24.43
2022-08-26T04:41:55.673Z,24.46
2022-08-26T04:47:06.062Z,24.50
2022-08-26T04:52:14.273Z,24.55
2022-08-26T04:57:30.132Z,24.58
2022-08-26T05:02:39.100Z,24.64
2022-08-26T05:07:46.757Z,24.67
2022-08-26T05:13:00.525Z,24.69
2022-08-26T05:18:34.520Z,24.70
2022-08-26T05:23:37.710Z,24.74
2022-08-26T05:28:46.991Z,24.74
2022-08-26T05:33:55.316Z,24.77
2022-08-26T05:39:02.334Z,24.81
2022-08-26T05:44:07.679Z,24.84
2022-08-26T05:49:17.355Z,24.87
2022-08-26T05:54:42.127Z,24.88
2022-08-26T05:59:56.142Z,24.90
2022-08-26T06:05:07.586Z,24.93
2022-08-26T06:10:31.605Z,24.96
2022-08-26T06:15:42.041Z,25.01
2022-08-26T06:20:57.034Z,25.09
2022-08-26T06:26:09.179Z,25.15
2022-08-26T06:31:20.744Z,25.25
2022-08-26T06:36:27.164Z,25.32
2022-08-26T06:41:32.138Z,25.40
2022-08-26T06:46:34.921Z,25.46
2022-08-26T06:57:14.937Z,25.52
2022-08-26T07:02:30.150Z,25.60
2022-08-26T07:07:32.160Z,25.66
2022-08-26T07:12:37.424Z,25.68
2022-08-26T07:35:17.561Z,26.99
2022-08-26T07:46:20.772Z,27.85
2022-08-26T08:15:31.697Z,29.22
2022-08-26T08:20:59.401Z,29.39
2022-08-26T08:26:11.405Z,29.62
2022-08-26T08:31:55.945Z,29.83
2022-08-26T08:36:57.249Z,30.05
2022-08-26T08:42:23.749Z,30.22
2022-08-26T08:47:44.132Z,30.45
2022-08-26T08:52:56.848Z,30.57
2022-08-26T08:58:12.801Z,30.69
2022-08-26T09:03:41.896Z,30.82
2022-08-26T09:08:50.845Z,31.02
2022-08-26T09:14:07.440Z,31.20
2022-08-26T09:19:42.426Z,31.29
2022-08-26T09:24:49.206Z,31.44
2022-08-26T09:29:59.312Z,31.63
2022-08-26T09:35:06.189Z,31.78
2022-08-26T09:40:30.450Z,31.91
2022-08-26T09:45:54.934Z,32.09
2022-08-26T09:51:28.749Z,32.25
2022-08-26T09:56:37.249Z,32.37
2022-08-26T10:01:44.348Z,32.42
2022-08-26T10:07:03.854Z,32.48
2022-08-26T10:12:22.208Z,32.64
2022-08-26T10:17:34.089Z,32.77
2022-08-26T10:22:47.349Z,32.82
2022-08-26T10:28:00.848Z,32.87
2022-08-26T10:33:10.148Z,32.89
2022-08-26T10:38:21.560Z,32.91
2022-08-26T10:43:28.844Z,32.89
2022-08-26T10:48:44.709Z,32.87
2022-08-26T10:54:11.883Z,32.97
2022-08-26T10:59:36.809Z,32.83
2022-08-26T11:04:59.804Z,32.94
2022-08-26T11:10:34.834Z,32.90
2022-08-26T11:15:58.710Z,32.81
2022-08-26T11:21:59.736Z,32.67
2022-08-26T11:27:06.436Z,32.46
2022-08-26T11:32:26.485Z,32.39
2022-08-26T11:37:41.222Z,32.20
2022-08-26T11:42:49.265Z,31.99
2022-08-26T11:47:52.077Z,31.79
2022-08-26T11:53:17.959Z,31.70
2022-08-26T11:58:28.724Z,31.65
2022-08-26T12:03:57.758Z,31.58
2022-08-26T12:09:11.674Z,31.36
2022-08-26T12:14:20.888Z,31.21
2022-08-26T12:19:32.723Z,31.19
2022-08-26T12:24:54.665Z,31.26
2022-08-26T12:30:21.442Z,31.35
2022-08-26T12:35:24.885Z,31.26
2022-08-26T12:40:46.470Z,31.24
2022-08-26T12:46:01.508Z,31.16
2022-08-26T12:51:38.732Z,31.11
2022-08-26T12:56:51.985Z,31.05
2022-08-26T13:01:56.028Z,31.05
2022-08-26T13:07:28.667Z,31.03
2022-08-26T13:12:34.968Z,30.99
2022-08-26T13:18:16.726Z,31.03
2022-08-26T13:23:21.586Z,30.97
2022-08-26T13:28:37.157Z,30.79
2022-08-26T13:33:40.118Z,30.55
2022-08-26T13:38:43.585Z,30.51
2022-08-26T13:43:55.820Z,30.53
2022-08-26T13:49:09.225Z,30.39
2022-08-26T13:54:15.416Z,30.34
2022-08-26T13:59:24.680Z,30.31
2022-08-26T14:04:27.571Z,30.29
2022-08-26T14:09:38.290Z,30.27
2022-08-26T14:15:05.502Z,30.21
2022-08-26T14:25:37.201Z,30.31
2022-08-26T14:31:00.202Z,30.23
2022-08-26T14:36:31.566Z,30.09
2022-08-26T14:41:54.652Z,30.00
2022-08-26T14:46:57.983Z,29.88
2022-08-26T14:52:07.291Z,29.85
2022-08-26T14:57:18.420Z,29.84
2022-08-26T15:02:33.320Z,29.73
2022-08-26T15:07:43.790Z,29.75
2022-08-26T15:12:50.789Z,29.71
2022-08-26T15:17:58.189Z,29.66
2022-08-26T15:23:07.865Z,29.63
2022-08-26T15:28:11.165Z,29.61
2022-08-26T15:33:15.683Z,29.58
2022-08-26T15:38:29.668Z,29.61
2022-08-26T15:43:39.950Z,29.60
2022-08-26T15:48:43.792Z,29.53
2022-08-26T15:53:45.927Z,29.45
2022-08-26T15:58:52.753Z,29.40
2022-08-26T16:04:00.669Z,29.40
2022-08-26T16:09:14.400Z,29.27
2022-08-26T16:14:17.791Z,29.10
2022-08-26T16:19:32.012Z,28.97
2022-08-26T16:24:40.408Z,29.02
2022-08-26T16:29:44.947Z,29.05
2022-08-26T16:35:17.859Z,29.10
2022-08-26T16:40:25.665Z,29.13
2022-08-26T16:45:39.082Z,29.16
2022-08-26T16:50:46.718Z,29.24
2022-08-26T17:01:45.711Z,29.27
2022-08-26T17:06:49.973Z,29.22
2022-08-26T17:12:03.993Z,29.17
2022-08-26T17:17:10.351Z,29.10
2022-08-26T17:22:15.893Z,29.00
2022-08-26T17:27:30.126Z,28.95
2022-08-26T17:32:35.317Z,28.91
2022-08-26T17:37:51.690Z,28.90
2022-08-26T18:00:28.410Z,28.87
2022-08-26T18:05:30.653Z,28.87
2022-08-26T18:10:32.686Z,28.86
2022-08-26T18:15:34.705Z,28.85
2022-08-26T18:20:44.357Z,28.82
2022-08-26T18:25:46.322Z,28.82
2022-08-26T18:30:48.332Z,28.79
2022-08-26T18:35:50.433Z,28.78
2022-08-26T18:40:53.391Z,28.77
2022-08-26T18:46:16.552Z,28.77
2022-08-26T18:51:25.655Z,28.76
2022-08-26T18:56:28.802Z,28.75
2022-08-26T19:01:31.902Z,28.74
2022-08-26T19:06:35.971Z,28.74
2022-08-26T19:11:42.306Z,28.74
2022-08-26T19:16:49.022Z,28.73
2022-08-26T19:21:52.635Z,28.74
2022-08-26T19:27:00.707Z,28.73
2022-08-26T19:32:04.678Z,28.73
2022-08-26T19:37:06.627Z,28.72
2022-08-26T19:42:08.606Z,28.70
2022-08-26T19:47:14.332Z,28.67
2022-08-26T19:52:24.060Z,28.65
2022-08-26T19:57:36.090Z,28.64
2022-08-26T20:02:51.516Z,28.62
2022-08-26T20:08:02.815Z,28.61
2022-08-26T20:13:08.742Z,28.61
2022-08-26T20:18:36.774Z,28.59
2022-08-26T20:23:51.061Z,28.60
2022-08-26T20:28:58.623Z,28.57
2022-08-26T20:34:27.694Z,28.54
2022-08-26T20:39:30.996Z,28.52
2022-08-26T20:44:45.468Z,28.50
2022-08-26T20:49:58.112Z,28.47
2022-08-26T20:55:01.371Z,28.46
2022-08-26T21:00:12.009Z,28.45
2022-08-26T21:05:15.690Z,28.44
2022-08-26T21:10:20.900Z,28.43
2022-08-26T21:15:33.407Z,28.40
2022-08-26T21:21:07.746Z,28.37
2022-08-26T21:26:27.937Z,28.35
2022-08-26T21:36:50.038Z,28.27
2022-08-26T21:41:56.061Z,28.23
2022-08-26T21:47:02.262Z,28.19
2022-08-26T21:52:08.055Z,28.16
2022-08-26T21:57:12.064Z,28.14
2022-08-26T22:02:16.815Z,28.13
2022-08-26T22:07:27.515Z,28.15
2022-08-26T22:12:34.447Z,28.14
2022-08-26T22:17:38.356Z,28.11
2022-08-26T22:22:46.192Z,28.07
2022-08-26T22:27:52.304Z,28.02
2022-08-26T22:33:00.897Z,27.99
2022-08-26T22:38:10.822Z,27.94
2022-08-26T22:43:15.123Z,27.90
2022-08-26T22:48:28.699Z,27.87
2022-08-26T22:53:36.634Z,27.87
2022-08-26T22:58:48.149Z,27.86
2022-08-26T23:04:27.741Z,27.83
2022-08-26T23:09:37.560Z,27.81
2022-08-26T23:14:47.515Z,27.79
2022-08-26T23:20:00.648Z,27.76
2022-08-26T23:25:10.358Z,27.76
2022-08-26T23:30:18.884Z,27.71
2022-08-26T23:35:26.923Z,27.66
2022-08-26T23:40:35.789Z,27.62
2022-08-26T23:45:42.176Z,27.58
2022-08-26T23:51:06.421Z,27.55
2022-08-26T23:56:23.569Z,27.53
